createdAt,value
2017-08-24T00:01:02.396Z,19.60
2017-08-24T00:03:30.704Z,19.60
2017-08-24T00:05:59.021Z,19.60
2017-08-24T00:08:27.350Z,19.60
2017-08-24T00:10:55.669Z,19.60
2017-08-24T00:13:23.961Z,19.60
2017-08-24T00:15:52.286Z,19.50
2017-08-24T00:18:20.641Z,19.50
2017-08-24T00:20:48.932Z,19.50
2017-08-24T00:23:17.231Z,19.50
2017-08-24T00:25:45.594Z,19.50
2017-08-24T00:28:13.893Z,19.50
2017-08-24T00:30:42.190Z,19.50
2017-08-24T00:33:10.521Z,19.50
2017-08-24T00:35:38.916Z,19.40
2017-08-24T00:38:07.252Z,19.40
2017-08-24T00:40:35.568Z,19.40
2017-08-24T00:43:03.864Z,19.40
2017-08-24T00:45:32.189Z,19.40
2017-08-24T00:48:00.526Z,19.30
2017-08-24T00:50:28.895Z,19.30
2017-08-24T00:52:57.190Z,19.20
2017-08-24T00:55:25.559Z,19.20
2017-08-24T00:57:53.857Z,19.10
2017-08-24T01:00:22.192Z,19.00
2017-08-24T01:02:50.515Z,18.90
2017-08-24T01:05:18.847Z,18.80
2017-08-24T01:07:47.318Z,18.80
2017-08-24T01:10:15.619Z,18.80
2017-08-24T01:12:43.910Z,18.80
2017-08-24T01:15:12.236Z,18.70
2017-08-24T01:17:40.593Z,18.70
2017-08-24T01:20:08.912Z,18.50
2017-08-24T01:22:37.247Z,18.50
2017-08-24T01:25:05.540Z,18.40
2017-08-24T01:27:33.845Z,18.40
2017-08-24T01:30:02.180Z,18.50
2017-08-24T01:32:30.491Z,18.50
2017-08-24T01:34:58.815Z,18.50
2017-08-24T01:37:27.214Z,18.40
2017-08-24T01:39:55.513Z,18.30
2017-08-24T01:42:23.837Z,18.30
2017-08-24T01:44:52.173Z,18.20
2017-08-24T01:47:20.503Z,18.20
2017-08-24T01:49:48.826Z,18.20
2017-08-24T01:52:17.126Z,18.30
2017-08-24T01:54:45.485Z,18.30
2017-08-24T01:57:13.796Z,18.40
2017-08-24T01:59:42.103Z,18.50
2017-08-24T02:02:10.437Z,18.50
2017-08-24T02:04:38.730Z,18.60
2017-08-24T02:07:07.056Z,18.60
2017-08-24T02:09:35.434Z,18.70
2017-08-24T02:12:03.791Z,18.70
2017-08-24T02:14:32.117Z,18.70
2017-08-24T02:17:00.925Z,18.70
2017-08-24T02:19:29.285Z,18.70
2017-08-24T02:21:57.805Z,18.70
2017-08-24T02:24:26.094Z,18.60
2017-08-24T02:26:54.502Z,18.60
2017-08-24T02:29:22.896Z,18.60
2017-08-24T02:31:51.247Z,18.60
2017-08-24T02:34:19.574Z,18.50
2017-08-24T02:36:47.967Z,18.50
2017-08-24T02:39:16.274Z,18.50
2017-08-24T02:41:44.587Z,18.40
2017-08-24T02:44:12.932Z,18.40
2017-08-24T02:46:41.231Z,18.30
2017-08-24T02:49:09.590Z,18.30
2017-08-24T02:51:37.889Z,18.30
2017-08-24T02:54:06.181Z,18.20
2017-08-24T02:56:34.511Z,18.20
2017-08-24T02:59:02.870Z,18.20
2017-08-24T03:01:31.171Z,18.20
2017-08-24T03:03:59.529Z,18.20
2017-08-24T03:06:27.853Z,18.30
2017-08-24T03:08:56.206Z,18.30
2017-08-24T03:11:24.505Z,18.30
2017-08-24T03:13:52.814Z,18.40
2017-08-24T03:16:21.131Z,18.40
2017-08-24T03:18:49.493Z,18.40
2017-08-24T03:21:17.838Z,18.40
2017-08-24T03:23:46.135Z,18.40
2017-08-24T03:26:14.445Z,18.30
2017-08-24T03:28:42.776Z,18.20
2017-08-24T03:31:11.081Z,18.20
2017-08-24T03:33:39.405Z,18.20
2017-08-24T03:36:07.734Z,18.20
2017-08-24T03:38:36.029Z,18.20
2017-08-24T03:41:04.385Z,18.20
2017-08-24T03:43:32.736Z,18.20
2017-08-24T03:46:01.075Z,18.10
2017-08-24T03:48:29.805Z,18.10
2017-08-24T03:50:58.137Z,18.10
2017-08-24T03:53:26.432Z,18.10
2017-08-24T03:55:54.725Z,18.10
2017-08-24T03:58:23.058Z,18.20
2017-08-24T04:00:51.407Z,18.20
2017-08-24T04:03:19.755Z,18.10
2017-08-24T04:05:48.147Z,18.00
2017-08-24T04:08:16.447Z,17.90
2017-08-24T04:10:44.745Z,17.80
2017-08-24T04:13:13.066Z,17.80
2017-08-24T04:15:41.391Z,17.80
2017-08-24T04:18:09.692Z,17.80
2017-08-24T04:20:38.009Z,17.90
2017-08-24T04:23:06.300Z,17.90
2017-08-24T04:25:34.727Z,17.90
2017-08-24T04:28:03.029Z,17.90
2017-08-24T04:30:31.328Z,18.00
2017-08-24T04:32:59.702Z,18.00
2017-08-24T04:35:28.045Z,18.00
2017-08-24T04:37:56.378Z,18.00
2017-08-24T04:40:24.670Z,18.10
2017-08-24T04:42:53.025Z,18.20
2017-08-24T04:45:21.350Z,18.20
2017-08-24T04:47:49.688Z,18.20
2017-08-24T04:50:17.994Z,18.20
2017-08-24T04:52:46.305Z,18.10
2017-08-24T04:55:14.683Z,18.20
2017-08-24T04:57:42.976Z,18.20
2017-08-24T05:00:11.378Z,18.20
2017-08-24T05:02:39.702Z,18.20
2017-08-24T05:05:08.003Z,18.20
2017-08-24T05:07:36.317Z,18.10
2017-08-24T05:10:04.652Z,18.20
2017-08-24T05:12:32.984Z,18.30
2017-08-24T05:15:01.360Z,18.30
2017-08-24T05:17:29.673Z,18.30
2017-08-24T05:19:58.258Z,18.50
2017-08-24T05:22:26.558Z,18.50
2017-08-24T05:24:54.958Z,18.60
2017-08-24T05:27:23.294Z,18.70
2017-08-24T05:29:51.589Z,18.70
2017-08-24T05:32:19.933Z,18.70
2017-08-24T05:34:48.273Z,18.80
2017-08-24T05:37:16.821Z,18.80
2017-08-24T05:39:45.214Z,18.90
2017-08-24T05:42:13.530Z,18.90
2017-08-24T05:44:41.876Z,19.00
2017-08-24T05:47:10.189Z,19.10
2017-08-24T05:49:38.512Z,19.20
2017-08-24T05:52:06.848Z,19.30
2017-08-24T05:54:35.152Z,19.60
2017-08-24T05:57:03.557Z,19.90
2017-08-24T05:59:32.024Z,20.40
2017-08-24T06:02:00.360Z,20.80
2017-08-24T06:04:28.685Z,21.10
2017-08-24T06:06:57.740Z,21.20
2017-08-24T06:09:26.109Z,21.20
2017-08-24T06:11:54.432Z,21.30
2017-08-24T06:14:22.735Z,21.40
2017-08-24T06:16:51.122Z,21.50
2017-08-24T06:19:19.425Z,21.60
2017-08-24T06:21:47.799Z,21.70
2017-08-24T06:24:16.124Z,21.70
2017-08-24T06:26:44.422Z,21.90
2017-08-24T06:29:12.757Z,22.10
2017-08-24T06:31:41.102Z,22.10
2017-08-24T06:34:09.482Z,22.00
2017-08-24T06:36:37.821Z,21.60
2017-08-24T06:39:06.124Z,21.20
2017-08-24T06:41:34.429Z,21.10
2017-08-24T06:44:02.752Z,20.90
2017-08-24T06:46:31.079Z,20.80
2017-08-24T06:48:59.383Z,20.70
2017-08-24T06:51:27.718Z,20.70
2017-08-24T06:53:56.008Z,20.80
2017-08-24T06:56:24.312Z,20.70
2017-08-24T06:58:52.650Z,20.80
2017-08-24T07:01:20.948Z,20.90
2017-08-24T07:03:49.247Z,21.00
2017-08-24T07:06:17.582Z,21.10
2017-08-24T07:08:45.949Z,21.00
2017-08-24T07:11:14.259Z,21.10
2017-08-24T07:13:42.610Z,21.30
2017-08-24T07:16:10.939Z,21.40
2017-08-24T07:18:39.269Z,21.50
2017-08-24T07:21:07.564Z,21.60
2017-08-24T07:23:35.946Z,21.70
2017-08-24T07:26:04.266Z,21.60
2017-08-24T07:28:32.572Z,21.60
2017-08-24T07:31:00.898Z,21.70
2017-08-24T07:33:29.229Z,21.80
2017-08-24T07:35:57.584Z,21.90
2017-08-24T07:38:25.921Z,21.90
2017-08-24T07:40:54.229Z,21.90
2017-08-24T07:43:22.559Z,22.00
2017-08-24T07:45:50.906Z,22.30
2017-08-24T07:48:19.201Z,22.50
2017-08-24T07:50:47.534Z,22.80
2017-08-24T07:53:15.853Z,22.90
2017-08-24T07:58:47.387Z,23.40
2017-08-24T08:01:15.705Z,23.70
2017-08-24T08:03:44.008Z,23.90
2017-08-24T08:06:12.330Z,24.00
2017-08-24T08:08:40.644Z,24.00
2017-08-24T08:11:08.981Z,24.10
2017-08-24T08:13:37.297Z,24.00
2017-08-24T08:16:05.596Z,24.00
2017-08-24T08:18:33.927Z,24.10
2017-08-24T08:21:02.222Z,24.30
2017-08-24T08:23:30.575Z,24.40
2017-08-24T08:25:58.898Z,24.70
2017-08-24T08:28:27.221Z,24.90
2017-08-24T08:30:55.533Z,24.80
2017-08-24T08:33:23.872Z,24.80
2017-08-24T08:35:52.162Z,24.70
2017-08-24T08:38:20.490Z,24.70
2017-08-24T08:40:48.794Z,24.90
2017-08-24T08:43:17.139Z,24.90
2017-08-24T08:45:45.481Z,24.90
2017-08-24T08:48:13.785Z,24.80
2017-08-24T08:50:42.087Z,24.60
2017-08-24T08:53:10.403Z,24.50
2017-08-24T08:55:38.761Z,24.30
2017-08-24T08:58:07.064Z,24.20
2017-08-24T09:00:35.365Z,24.20
2017-08-24T09:03:03.725Z,24.10
2017-08-24T09:05:32.018Z,24.10
2017-08-24T09:08:00.422Z,24.10
2017-08-24T09:10:28.793Z,24.00
2017-08-24T09:12:57.111Z,24.00
2017-08-24T09:15:25.434Z,24.00
2017-08-24T09:17:53.735Z,24.10
2017-08-24T09:20:22.059Z,24.30
2017-08-24T09:22:50.382Z,24.50
2017-08-24T09:25:18.698Z,24.70
2017-08-24T09:27:47.613Z,25.10
2017-08-24T09:30:15.906Z,25.50
2017-08-24T09:32:44.200Z,25.80
2017-08-24T09:35:12.525Z,26.00
2017-08-24T09:37:40.905Z,26.20
2017-08-24T09:40:09.203Z,26.50
2017-08-24T09:42:37.576Z,26.70
2017-08-24T09:45:05.906Z,26.80
2017-08-24T09:47:34.199Z,26.90
2017-08-24T09:50:02.529Z,27.00
2017-08-24T09:52:30.858Z,27.10
2017-08-24T09:54:59.177Z,27.20
2017-08-24T09:57:27.507Z,27.30
2017-08-24T09:59:55.870Z,27.50
2017-08-24T10:02:24.166Z,27.80
2017-08-24T10:04:52.462Z,28.00
2017-08-24T10:07:20.797Z,28.30
2017-08-24T10:09:49.103Z,28.50
2017-08-24T10:12:17.425Z,28.60
2017-08-24T10:14:45.766Z,28.70
2017-08-24T10:17:14.097Z,28.60
2017-08-24T10:19:42.426Z,28.50
2017-08-24T10:22:10.791Z,28.50
2017-08-24T10:24:39.091Z,28.50
2017-08-24T10:27:07.593Z,28.30
2017-08-24T10:29:35.951Z,28.10
2017-08-24T10:32:04.205Z,28.00
2017-08-24T10:34:32.578Z,27.90
2017-08-24T10:37:00.889Z,27.70
2017-08-24T10:39:29.244Z,27.50
2017-08-24T10:41:57.589Z,27.40
2017-08-24T10:44:25.948Z,27.20
2017-08-24T10:46:54.249Z,27.20
2017-08-24T10:49:22.572Z,27.20
2017-08-24T10:51:50.930Z,27.20
2017-08-24T10:54:19.217Z,27.20
2017-08-24T10:56:47.554Z,27.10
2017-08-24T10:59:15.864Z,26.90
2017-08-24T11:01:44.157Z,26.80
2017-08-24T11:04:12.492Z,26.80
2017-08-24T11:06:40.800Z,26.60
2017-08-24T11:09:09.136Z,26.40
2017-08-24T11:11:37.498Z,26.20
2017-08-24T11:14:05.788Z,26.20
2017-08-24T11:16:34.082Z,26.20
2017-08-24T11:19:02.400Z,26.20
2017-08-24T11:21:30.732Z,26.10
2017-08-24T11:23:59.447Z,26.10
2017-08-24T11:26:27.747Z,26.00
2017-08-24T11:28:56.053Z,25.90
2017-08-24T11:31:24.397Z,25.90
2017-08-24T11:33:52.694Z,25.80
2017-08-24T11:36:20.993Z,25.70
2017-08-24T11:38:49.332Z,25.50
2017-08-24T11:41:17.633Z,25.40
2017-08-24T11:43:45.949Z,25.00
2017-08-24T11:46:14.285Z,25.30
2017-08-24T11:48:42.629Z,25.30
2017-08-24T11:51:10.962Z,25.30
2017-08-24T11:53:39.394Z,25.30
2017-08-24T11:56:07.689Z,25.40
2017-08-24T11:58:36.005Z,25.40
2017-08-24T12:01:04.329Z,25.30
2017-08-24T12:03:32.623Z,25.40
2017-08-24T12:06:00.965Z,25.40
2017-08-24T12:08:30.345Z,25.40
2017-08-24T12:10:58.640Z,25.30
2017-08-24T12:13:26.966Z,25.30
2017-08-24T12:15:55.349Z,25.40
2017-08-24T12:18:23.673Z,25.40
2017-08-24T12:20:51.973Z,25.40
2017-08-24T12:23:20.313Z,25.40
2017-08-24T12:25:48.629Z,25.40
2017-08-24T12:28:16.944Z,25.40
2017-08-24T12:30:45.260Z,25.50
2017-08-24T12:33:13.566Z,25.60
2017-08-24T12:35:41.917Z,25.70
2017-08-24T12:38:10.225Z,25.60
2017-08-24T12:40:38.539Z,25.60
2017-08-24T12:43:06.915Z,25.60
2017-08-24T12:45:35.212Z,25.70
2017-08-24T12:48:03.539Z,25.70
2017-08-24T12:50:31.832Z,25.70
2017-08-24T12:53:00.180Z,25.80
2017-08-24T12:55:28.490Z,25.90
2017-08-24T12:57:56.780Z,25.90
2017-08-24T13:00:25.108Z,25.80
2017-08-24T13:02:53.445Z,25.80
2017-08-24T13:05:21.773Z,25.70
2017-08-24T13:07:50.079Z,25.80
2017-08-24T13:10:18.382Z,25.90
2017-08-24T13:12:46.844Z,25.90
2017-08-24T13:15:15.174Z,26.00
2017-08-24T13:17:43.529Z,25.90
2017-08-24T13:20:11.829Z,25.90
2017-08-24T13:22:40.133Z,26.00
2017-08-24T13:25:08.724Z,26.00
2017-08-24T13:27:37.020Z,26.00
2017-08-24T13:30:05.367Z,26.00
2017-08-24T13:32:33.704Z,26.00
2017-08-24T13:35:02.027Z,26.00
2017-08-24T13:37:30.365Z,26.00
2017-08-24T13:39:58.662Z,26.00
2017-08-24T13:42:27.109Z,25.90
2017-08-24T13:44:55.428Z,25.80
2017-08-24T13:47:23.772Z,25.70
2017-08-24T13:49:52.077Z,25.80
2017-08-24T13:52:20.422Z,25.70
2017-08-24T13:54:48.771Z,25.80
2017-08-24T13:57:17.109Z,25.90
2017-08-24T13:59:45.444Z,26.00
2017-08-24T14:02:13.744Z,26.00
2017-08-24T14:04:42.085Z,25.90
2017-08-24T14:07:10.753Z,25.60
2017-08-24T14:09:39.073Z,25.50
2017-08-24T14:12:07.432Z,25.60
2017-08-24T14:14:35.728Z,25.60
2017-08-24T14:17:04.095Z,25.70
2017-08-24T14:19:32.389Z,25.60
2017-08-24T14:22:00.692Z,25.50
2017-08-24T14:24:29.014Z,25.60
2017-08-24T14:26:57.344Z,25.60
2017-08-24T14:29:25.696Z,25.50
2017-08-24T14:31:54.029Z,25.50
2017-08-24T14:34:22.355Z,25.50
2017-08-24T14:36:50.679Z,25.70
2017-08-24T14:39:19.002Z,25.60
2017-08-24T14:41:47.353Z,25.50
2017-08-24T14:44:15.657Z,25.40
2017-08-24T14:46:44.001Z,25.30
2017-08-24T14:49:13.109Z,25.40
2017-08-24T14:51:41.421Z,25.40
2017-08-24T14:54:09.727Z,25.40
2017-08-24T14:56:38.046Z,25.50
2017-08-24T14:59:06.354Z,25.50
2017-08-24T15:01:34.692Z,25.50
2017-08-24T15:04:03.859Z,25.50
2017-08-24T15:06:32.185Z,25.40
2017-08-24T15:09:00.484Z,25.20
2017-08-24T15:11:29.121Z,25.20
2017-08-24T15:13:57.425Z,25.00
2017-08-24T15:16:25.732Z,25.00
2017-08-24T15:18:54.059Z,24.90
2017-08-24T15:21:22.366Z,24.90
2017-08-24T15:23:50.725Z,25.00
2017-08-24T15:26:19.060Z,25.10
2017-08-24T15:28:47.367Z,25.10
2017-08-24T15:31:15.705Z,25.10
2017-08-24T15:33:44.001Z,25.00
2017-08-24T15:36:12.349Z,25.10
2017-08-24T15:38:40.646Z,25.10
2017-08-24T15:41:09.082Z,25.20
2017-08-24T15:43:37.471Z,25.10
2017-08-24T15:46:05.791Z,25.00
2017-08-24T15:48:34.126Z,25.00
2017-08-24T15:51:02.416Z,25.10
2017-08-24T15:53:30.714Z,25.10
2017-08-24T15:55:59.092Z,25.10
2017-08-24T15:58:27.398Z,25.10
2017-08-24T16:00:55.725Z,25.10
2017-08-24T16:03:24.081Z,24.90
2017-08-24T16:05:52.380Z,24.80
2017-08-24T16:08:20.734Z,24.80
2017-08-24T16:10:49.032Z,24.70
2017-08-24T16:13:17.321Z,24.60
2017-08-24T16:15:45.652Z,24.60
2017-08-24T16:18:13.949Z,24.60
2017-08-24T16:20:42.248Z,24.60
2017-08-24T16:23:10.625Z,24.60
2017-08-24T16:25:38.921Z,24.50
2017-08-24T16:28:07.242Z,24.40
2017-08-24T16:30:35.645Z,24.40
2017-08-24T16:33:03.947Z,24.40
2017-08-24T16:35:32.288Z,24.40
2017-08-24T16:38:00.633Z,24.30
2017-08-24T16:40:28.926Z,24.30
2017-08-24T16:42:57.217Z,24.30
2017-08-24T16:45:25.535Z,24.40
2017-08-24T16:47:53.825Z,24.30
2017-08-24T16:50:22.170Z,24.50
2017-08-24T16:52:50.469Z,24.50
2017-08-24T16:55:18.792Z,24.50
2017-08-24T16:57:47.153Z,24.50
2017-08-24T17:00:15.453Z,24.30
2017-08-24T17:02:43.798Z,24.30
2017-08-24T17:05:12.117Z,24.20
2017-08-24T17:07:40.423Z,24.10
2017-08-24T17:10:08.754Z,24.10
2017-08-24T17:12:37.057Z,24.00
2017-08-24T17:15:05.553Z,23.90
2017-08-24T17:17:33.985Z,23.90
2017-08-24T17:20:02.295Z,23.80
2017-08-24T17:22:31.032Z,23.80
2017-08-24T17:24:59.330Z,23.80
2017-08-24T17:27:27.655Z,23.70
2017-08-24T17:29:55.963Z,23.70
2017-08-24T17:32:24.318Z,23.70
2017-08-24T17:34:52.611Z,23.60
2017-08-24T17:37:20.956Z,23.70
2017-08-24T17:39:49.331Z,23.70
2017-08-24T17:42:17.624Z,23.70
2017-08-24T17:44:45.957Z,23.60
2017-08-24T17:47:14.270Z,23.60
2017-08-24T17:49:42.592Z,23.50
2017-08-24T17:52:10.899Z,23.50
2017-08-24T17:54:39.234Z,23.50
2017-08-24T17:57:07.529Z,23.40
2017-08-24T17:59:35.825Z,23.40
2017-08-24T18:02:04.170Z,23.40
2017-08-24T18:04:32.505Z,23.40
2017-08-24T18:07:00.861Z,23.30
2017-08-24T18:09:29.288Z,23.20
2017-08-24T18:11:57.650Z,23.20
2017-08-24T18:14:25.944Z,23.10
2017-08-24T18:16:54.265Z,23.10
2017-08-24T18:19:22.590Z,23.00
2017-08-24T18:21:50.944Z,22.90
2017-08-24T18:24:19.272Z,22.80
2017-08-24T18:26:47.570Z,22.80
2017-08-24T18:29:15.884Z,22.70
2017-08-24T18:31:44.205Z,22.70
2017-08-24T18:34:12.525Z,22.60
2017-08-24T18:36:40.826Z,22.60
2017-08-24T18:39:09.175Z,22.50
2017-08-24T18:41:37.549Z,22.40
2017-08-24T18:44:05.849Z,22.30
2017-08-24T18:46:34.156Z,22.30
2017-08-24T18:49:02.477Z,22.20
2017-08-24T18:51:30.799Z,22.20
2017-08-24T18:53:59.141Z,22.10
2017-08-24T18:56:27.461Z,22.00
2017-08-24T18:58:55.781Z,21.90
2017-08-24T19:01:24.078Z,21.80
2017-08-24T19:03:52.458Z,21.70
2017-08-24T19:06:20.783Z,21.70
2017-08-24T19:08:49.076Z,21.70
2017-08-24T19:11:17.396Z,21.60
2017-08-24T19:13:45.710Z,21.60
2017-08-24T19:16:14.027Z,21.60
2017-08-24T19:18:42.351Z,21.50
2017-08-24T19:21:10.669Z,21.50
2017-08-24T19:23:38.991Z,21.50
2017-08-24T19:26:07.308Z,21.40
2017-08-24T19:28:35.664Z,21.20
2017-08-24T19:31:03.989Z,21.10
2017-08-24T19:33:32.408Z,21.10
2017-08-24T19:36:00.804Z,21.10
2017-08-24T19:38:29.129Z,21.10
2017-08-24T19:40:57.485Z,21.10
2017-08-24T19:43:25.927Z,21.00
2017-08-24T19:45:54.221Z,20.90
2017-08-24T19:48:22.591Z,20.90
2017-08-24T19:50:50.921Z,20.90
2017-08-24T19:53:19.308Z,20.80
2017-08-24T19:55:47.796Z,20.80
2017-08-24T19:58:16.280Z,20.80
2017-08-24T20:00:44.583Z,20.80
2017-08-24T20:03:13.016Z,20.70
2017-08-24T20:05:41.312Z,20.60
2017-08-24T20:08:09.657Z,20.60
2017-08-24T20:10:37.950Z,20.60
2017-08-24T20:13:06.249Z,20.60
2017-08-24T20:15:34.628Z,20.50
2017-08-24T20:18:02.929Z,20.50
2017-08-24T20:20:31.241Z,20.40
2017-08-24T20:22:59.601Z,20.40
2017-08-24T20:25:27.922Z,20.40
2017-08-24T20:27:56.333Z,20.30
2017-08-24T20:30:24.784Z,20.20
2017-08-24T20:32:53.209Z,20.20
2017-08-24T20:35:21.514Z,20.10
2017-08-24T20:37:49.827Z,20.10
2017-08-24T20:40:18.189Z,20.00
2017-08-24T20:42:46.519Z,20.00
2017-08-24T20:45:14.884Z,20.10
2017-08-24T20:47:43.191Z,20.00
2017-08-24T20:50:11.518Z,19.90
2017-08-24T20:52:39.853Z,19.80
2017-08-24T20:55:08.196Z,19.70
2017-08-24T20:57:36.488Z,19.60
2017-08-24T21:00:04.776Z,19.60
2017-08-24T21:02:33.093Z,19.60
2017-08-24T21:05:01.388Z,19.60
2017-08-24T21:07:29.707Z,19.60
2017-08-24T21:09:58.005Z,19.60
2017-08-24T21:12:26.300Z,19.60
2017-08-24T21:14:54.612Z,19.60
2017-08-24T21:17:22.913Z,19.60
2017-08-24T21:19:51.251Z,19.50
2017-08-24T21:22:19.548Z,19.50
2017-08-24T21:24:47.868Z,19.50
2017-08-24T21:27:16.487Z,19.50
2017-08-24T21:29:44.838Z,19.40
2017-08-24T21:32:13.132Z,19.40
2017-08-24T21:34:41.465Z,19.40
2017-08-24T21:37:09.759Z,19.30
2017-08-24T21:39:38.075Z,19.20
2017-08-24T21:42:06.418Z,19.20
2017-08-24T21:44:34.725Z,19.20
2017-08-24T21:47:03.020Z,19.10
2017-08-24T21:49:31.340Z,19.20
2017-08-24T21:51:59.668Z,19.20
2017-08-24T21:54:27.980Z,19.20
2017-08-24T21:56:56.326Z,19.20
2017-08-24T21:59:24.621Z,19.20
2017-08-24T22:01:52.984Z,19.10
2017-08-24T22:04:21.284Z,19.10
2017-08-24T22:06:49.587Z,19.10
2017-08-24T22:09:17.940Z,19.10
2017-08-24T22:11:46.247Z,19.10
2017-08-24T22:14:14.593Z,19.10
2017-08-24T22:16:42.969Z,19.10
2017-08-24T22:19:11.269Z,19.00
2017-08-24T22:21:40.707Z,19.00
2017-08-24T22:24:10.070Z,19.00
2017-08-24T22:26:38.405Z,19.00
2017-08-24T22:29:06.703Z,18.90
2017-08-24T22:31:35.037Z,18.90
2017-08-24T22:34:03.403Z,18.90
2017-08-24T22:36:31.720Z,18.80
2017-08-24T22:39:00.017Z,18.80
2017-08-24T22:41:28.344Z,18.80
2017-08-24T22:43:56.668Z,18.80
2017-08-24T22:46:24.960Z,18.80
2017-08-24T22:48:53.247Z,18.80
2017-08-24T22:51:21.597Z,18.70
2017-08-24T22:53:55.489Z,18.80
2017-08-24T22:56:29.269Z,18.70
2017-08-24T22:59:03.025Z,18.70
2017-08-24T23:14:56.501Z,18.60
2017-08-24T23:17:24.813Z,18.60
2017-08-24T23:19:53.135Z,18.50
2017-08-24T23:22:21.477Z,18.50
2017-08-24T23:24:49.777Z,18.50
2017-08-24T23:27:18.095Z,18.50
2017-08-24T23:29:46.380Z,18.50
2017-08-24T23:32:14.699Z,18.40
2017-08-24T23:34:43.007Z,18.40
2017-08-24T23:37:11.326Z,18.40
2017-08-24T23:39:39.654Z,18.40
2017-08-24T23:42:07.956Z,18.30
2017-08-24T23:44:36.326Z,18.40
2017-08-24T23:47:04.698Z,18.30
2017-08-24T23:49:34.023Z,18.30
2017-08-24T23:52:02.348Z,18.30
2017-08-24T23:54:30.652Z,18.30
2017-08-24T23:56:58.960Z,18.30
2017-08-24T23:59:27.250Z,18.30
